Glenwood, New York
Current Conditions -  °F | °C
As of 5:22 AM on Tuesday 21 Oct 2014 (Local Time) from KBUF Reporting Station
Haze Haze  
Wind Chill: 11°   Ceiling: 1600
Heat Index: 11°   Visibility: 4mi
Dew Point:   Wind: 6mph
Humidity: 92%   Direction: 310°NW
Pressure: 29.78"   Gusts: NA
Location:  42.61°N, 78.65°W
Report Text: KBUF 210922Z 31005KT 4SM BR SCT005 OVC016 11/09 A2978 RMK AO2 T01060094
Loading
Personal Weather Stations






























Interactive Weather Map
Tropical Storm Tracking
New forecast layout! Learn more

10-Day Weather Forecast

Advertisements
Track Severe Weather on mobile